Schiller Park, Illinois
Current Conditions -  °F | °C
As of 4:51 AM on Tuesday 21 Oct 2014 (Local Time) from KORD Reporting Station
Overcast Overcast  
Wind Chill: 45°   Ceiling: 5000
Heat Index: 49°   Visibility: 10mi
Dew Point: 41°   Wind: 10mph
Humidity: 74%   Direction: 350°N
Pressure: 30.04"   Gusts: NA
Location:  41.95°N, 87.86°W
Report Text: KORD 210951Z 35009KT 10SM FEW025 OVC050 09/05 A3004 RMK AO2 SLP175 T00940050 $
Loading
Personal Weather Stations






























Interactive Weather Map
Tropical Storm Tracking
New forecast layout! Learn more

10-Day Weather Forecast

Advertisements
Track Severe Weather on mobile